sensor_id;sensor_type;location;lat;lon;timestamp;P1;durP1;ratioP1;P2;durP2;ratioP2
74162;SDS011;62515;52.758;5.076;2023-05-07T00:00:36;40.58;;;23.95;;
74162;SDS011;62515;52.758;5.076;2023-05-07T00:03:03;43.33;;;24.80;;
74162;SDS011;62515;52.758;5.076;2023-05-07T00:05:31;50.25;;;26.10;;
74162;SDS011;62515;52.758;5.076;2023-05-07T00:07:58;51.17;;;24.98;;
74162;SDS011;62515;52.758;5.076;2023-05-07T00:10:25;47.35;;;25.48;;
74162;SDS011;62515;52.758;5.076;2023-05-07T00:12:52;47.83;;;24.75;;
74162;SDS011;62515;52.758;5.076;2023-05-07T00:15:19;48.30;;;24.63;;
74162;SDS011;62515;52.758;5.076;2023-05-07T00:17:46;44.88;;;25.67;;
74162;SDS011;62515;52.758;5.076;2023-05-07T00:20:13;48.83;;;25.40;;
74162;SDS011;62515;52.758;5.076;2023-05-07T00:22:41;47.15;;;26.58;;
74162;SDS011;62515;52.758;5.076;2023-05-07T00:25:08;42.75;;;25.33;;
74162;SDS011;62515;52.758;5.076;2023-05-07T00:27:35;54.65;;;27.63;;
74162;SDS011;62515;52.758;5.076;2023-05-07T00:30:01;46.20;;;24.48;;
74162;SDS011;62515;52.758;5.076;2023-05-07T00:32:28;46.53;;;29.10;;
74162;SDS011;62515;52.758;5.076;2023-05-07T00:34:55;42.53;;;27.88;;
74162;SDS011;62515;52.758;5.076;2023-05-07T00:37:22;46.05;;;27.13;;
74162;SDS011;62515;52.758;5.076;2023-05-07T00:39:50;42.95;;;27.88;;
74162;SDS011;62515;52.758;5.076;2023-05-07T00:42:17;50.08;;;27.95;;
74162;SDS011;62515;52.758;5.076;2023-05-07T00:44:44;48.00;;;28.65;;
74162;SDS011;62515;52.758;5.076;2023-05-07T00:47:10;54.28;;;29.08;;
74162;SDS011;62515;52.758;5.076;2023-05-07T00:49:38;55.38;;;31.63;;
74162;SDS011;62515;52.758;5.076;2023-05-07T00:52:06;57.95;;;32.92;;
74162;SDS011;62515;52.758;5.076;2023-05-07T00:54:33;55.95;;;32.25;;
74162;SDS011;62515;52.758;5.076;2023-05-07T00:57:03;58.05;;;31.50;;
74162;SDS011;62515;52.758;5.076;2023-05-07T00:59:30;59.65;;;31.13;;
74162;SDS011;62515;52.758;5.076;2023-05-07T01:01:58;60.13;;;30.77;;
74162;SDS011;62515;52.758;5.076;2023-05-07T01:04:25;54.67;;;30.88;;
74162;SDS011;62515;52.758;5.076;2023-05-07T01:06:53;57.05;;;30.58;;
74162;SDS011;62515;52.758;5.076;2023-05-07T01:09:22;54.83;;;30.20;;
74162;SDS011;62515;52.758;5.076;2023-05-07T01:11:51;56.75;;;30.63;;
74162;SDS011;62515;52.758;5.076;2023-05-07T01:14:20;58.42;;;30.88;;
74162;SDS011;62515;52.758;5.076;2023-05-07T01:16:47;59.95;;;30.90;;
74162;SDS011;62515;52.758;5.076;2023-05-07T01:19:15;59.22;;;30.75;;
74162;SDS011;62515;52.758;5.076;2023-05-07T01:24:14;51.95;;;28.25;;
74162;SDS011;62515;52.758;5.076;2023-05-07T01:26:42;53.28;;;29.58;;
74162;SDS011;62515;52.758;5.076;2023-05-07T01:29:09;55.83;;;31.58;;
74162;SDS011;62515;52.758;5.076;2023-05-07T01:31:36;62.95;;;31.63;;
74162;SDS011;62515;52.758;5.076;2023-05-07T01:34:04;55.65;;;33.28;;
74162;SDS011;62515;52.758;5.076;2023-05-07T01:36:33;52.75;;;32.53;;
74162;SDS011;62515;52.758;5.076;2023-05-07T01:39:01;56.15;;;31.38;;
74162;SDS011;62515;52.758;5.076;2023-05-07T01:41:30;61.90;;;32.90;;
74162;SDS011;62515;52.758;5.076;2023-05-07T01:43:57;60.95;;;31.48;;
74162;SDS011;62515;52.758;5.076;2023-05-07T01:46:26;57.30;;;31.50;;
74162;SDS011;62515;52.758;5.076;2023-05-07T01:48:53;54.90;;;30.30;;
74162;SDS011;62515;52.758;5.076;2023-05-07T01:51:20;56.67;;;30.17;;
74162;SDS011;62515;52.758;5.076;2023-05-07T01:53:47;56.17;;;31.70;;
74162;SDS011;62515;52.758;5.076;2023-05-07T01:56:15;59.53;;;31.92;;
74162;SDS011;62515;52.758;5.076;2023-05-07T01:58:43;56.08;;;33.40;;
74162;SDS011;62515;52.758;5.076;2023-05-07T02:01:10;55.95;;;30.92;;
74162;SDS011;62515;52.758;5.076;2023-05-07T02:03:37;54.78;;;28.52;;
74162;SDS011;62515;52.758;5.076;2023-05-07T02:06:11;52.90;;;27.02;;
74162;SDS011;62515;52.758;5.076;2023-05-07T02:08:38;48.97;;;28.15;;
74162;SDS011;62515;52.758;5.076;2023-05-07T02:11:05;51.13;;;28.55;;
74162;SDS011;62515;52.758;5.076;2023-05-07T02:13:33;44.60;;;26.10;;
74162;SDS011;62515;52.758;5.076;2023-05-07T02:16:02;42.67;;;25.83;;
74162;SDS011;62515;52.758;5.076;2023-05-07T02:18:29;46.65;;;27.70;;
74162;SDS011;62515;52.758;5.076;2023-05-07T02:20:56;44.38;;;26.02;;
74162;SDS011;62515;52.758;5.076;2023-05-07T02:23:23;41.47;;;27.50;;
74162;SDS011;62515;52.758;5.076;2023-05-07T02:25:50;40.50;;;26.15;;
74162;SDS011;62515;52.758;5.076;2023-05-07T02:28:17;40.88;;;24.45;;
74162;SDS011;62515;52.758;5.076;2023-05-07T02:30:50;35.55;;;23.30;;
74162;SDS011;62515;52.758;5.076;2023-05-07T02:33:20;37.47;;;25.00;;
74162;SDS011;62515;52.758;5.076;2023-05-07T02:35:47;36.00;;;23.38;;
74162;SDS011;62515;52.758;5.076;2023-05-07T02:38:15;31.98;;;23.80;;
74162;SDS011;62515;52.758;5.076;2023-05-07T02:40:42;32.55;;;22.55;;
74162;SDS011;62515;52.758;5.076;2023-05-07T02:43:09;35.25;;;22.60;;
74162;SDS011;62515;52.758;5.076;2023-05-07T02:45:37;35.80;;;25.85;;
74162;SDS011;62515;52.758;5.076;2023-05-07T02:48:05;33.65;;;23.25;;
74162;SDS011;62515;52.758;5.076;2023-05-07T02:50:34;35.17;;;24.52;;
74162;SDS011;62515;52.758;5.076;2023-05-07T02:53:01;35.90;;;24.05;;
74162;SDS011;62515;52.758;5.076;2023-05-07T02:55:28;32.50;;;24.20;;
74162;SDS011;62515;52.758;5.076;2023-05-07T02:57:55;31.27;;;22.30;;
74162;SDS011;62515;52.758;5.076;2023-05-07T03:00:24;31.02;;;22.42;;
74162;SDS011;62515;52.758;5.076;2023-05-07T03:03:10;35.55;;;23.77;;
74162;SDS011;62515;52.758;5.076;2023-05-07T03:05:38;34.45;;;24.73;;
74162;SDS011;62515;52.758;5.076;2023-05-07T03:08:05;32.05;;;23.50;;
74162;SDS011;62515;52.758;5.076;2023-05-07T03:10:32;36.47;;;30.33;;
74162;SDS011;62515;52.758;5.076;2023-05-07T03:12:59;32.95;;;23.05;;
74162;SDS011;62515;52.758;5.076;2023-05-07T03:15:26;38.55;;;24.85;;
74162;SDS011;62515;52.758;5.076;2023-05-07T03:17:52;33.78;;;25.25;;
74162;SDS011;62515;52.758;5.076;2023-05-07T03:20:19;35.50;;;23.50;;
74162;SDS011;62515;52.758;5.076;2023-05-07T03:22:48;30.02;;;25.45;;
74162;SDS011;62515;52.758;5.076;2023-05-07T03:25:14;29.83;;;22.65;;
74162;SDS011;62515;52.758;5.076;2023-05-07T03:27:41;35.25;;;26.08;;
74162;SDS011;62515;52.758;5.076;2023-05-07T03:30:09;30.92;;;20.90;;
74162;SDS011;62515;52.758;5.076;2023-05-07T03:32:37;30.52;;;22.17;;
74162;SDS011;62515;52.758;5.076;2023-05-07T03:35:07;31.85;;;22.08;;
74162;SDS011;62515;52.758;5.076;2023-05-07T03:37:34;29.80;;;21.55;;
74162;SDS011;62515;52.758;5.076;2023-05-07T03:40:03;29.92;;;21.58;;
74162;SDS011;62515;52.758;5.076;2023-05-07T03:42:38;48.60;;;43.55;;
74162;SDS011;62515;52.758;5.076;2023-05-07T03:45:05;23.58;;;19.65;;
74162;SDS011;62515;52.758;5.076;2023-05-07T03:47:34;31.70;;;20.50;;
74162;SDS011;62515;52.758;5.076;2023-05-07T03:50:01;29.98;;;20.73;;
74162;SDS011;62515;52.758;5.076;2023-05-07T03:52:27;29.00;;;18.40;;
74162;SDS011;62515;52.758;5.076;2023-05-07T03:55:03;26.38;;;18.90;;
74162;SDS011;62515;52.758;5.076;2023-05-07T03:57:32;33.50;;;19.33;;
74162;SDS011;62515;52.758;5.076;2023-05-07T03:59:59;27.90;;;19.95;;
74162;SDS011;62515;52.758;5.076;2023-05-07T04:02:26;28.98;;;19.17;;
74162;SDS011;62515;52.758;5.076;2023-05-07T04:04:53;30.88;;;23.52;;
74162;SDS011;62515;52.758;5.076;2023-05-07T04:07:20;36.55;;;22.70;;
74162;SDS011;62515;52.758;5.076;2023-05-07T04:09:49;32.30;;;22.33;;
74162;SDS011;62515;52.758;5.076;2023-05-07T04:12:17;34.47;;;24.10;;
74162;SDS011;62515;52.758;5.076;2023-05-07T04:14:44;34.15;;;23.92;;
74162;SDS011;62515;52.758;5.076;2023-05-07T04:17:12;34.90;;;22.42;;
74162;SDS011;62515;52.758;5.076;2023-05-07T04:19:38;31.75;;;20.25;;
74162;SDS011;62515;52.758;5.076;2023-05-07T04:22:06;30.33;;;20.48;;
74162;SDS011;62515;52.758;5.076;2023-05-07T04:24:32;33.10;;;22.40;;
74162;SDS011;62515;52.758;5.076;2023-05-07T04:27:00;36.20;;;22.88;;
74162;SDS011;62515;52.758;5.076;2023-05-07T04:29:29;37.47;;;22.27;;
74162;SDS011;62515;52.758;5.076;2023-05-07T04:31:56;34.40;;;22.70;;
74162;SDS011;62515;52.758;5.076;2023-05-07T04:34:23;34.65;;;22.30;;
74162;SDS011;62515;52.758;5.076;2023-05-07T04:36:50;36.78;;;24.55;;
74162;SDS011;62515;52.758;5.076;2023-05-07T04:39:17;34.15;;;24.13;;
74162;SDS011;62515;52.758;5.076;2023-05-07T04:41:46;42.00;;;23.75;;
74162;SDS011;62515;52.758;5.076;2023-05-07T04:44:13;39.55;;;25.02;;
74162;SDS011;62515;52.758;5.076;2023-05-07T04:46:41;39.10;;;23.92;;
74162;SDS011;62515;52.758;5.076;2023-05-07T04:49:08;45.58;;;26.55;;
74162;SDS011;62515;52.758;5.076;2023-05-07T04:51:34;52.92;;;28.73;;
74162;SDS011;62515;52.758;5.076;2023-05-07T04:54:01;54.65;;;31.15;;
74162;SDS011;62515;52.758;5.076;2023-05-07T04:56:30;71.78;;;41.78;;
74162;SDS011;62515;52.758;5.076;2023-05-07T04:58:58;83.45;;;41.88;;
74162;SDS011;62515;52.758;5.076;2023-05-07T05:01:26;85.65;;;39.17;;
74162;SDS011;62515;52.758;5.076;2023-05-07T05:03:54;90.88;;;46.63;;
74162;SDS011;62515;52.758;5.076;2023-05-07T05:06:21;97.70;;;43.42;;
74162;SDS011;62515;52.758;5.076;2023-05-07T05:08:50;94.57;;;50.72;;
74162;SDS011;62515;52.758;5.076;2023-05-07T05:11:17;105.15;;;46.65;;
74162;SDS011;62515;52.758;5.076;2023-05-07T05:13:44;107.90;;;50.03;;
74162;SDS011;62515;52.758;5.076;2023-05-07T05:16:16;105.38;;;50.63;;
74162;SDS011;62515;52.758;5.076;2023-05-07T05:18:43;118.10;;;50.90;;
74162;SDS011;62515;52.758;5.076;2023-05-07T05:21:13;109.03;;;49.53;;
74162;SDS011;62515;52.758;5.076;2023-05-07T05:23:42;108.85;;;49.88;;
74162;SDS011;62515;52.758;5.076;2023-05-07T05:26:10;111.65;;;51.70;;
74162;SDS011;62515;52.758;5.076;2023-05-07T05:28:36;112.00;;;52.03;;
74162;SDS011;62515;52.758;5.076;2023-05-07T05:31:04;112.72;;;54.97;;
74162;SDS011;62515;52.758;5.076;2023-05-07T05:33:34;108.15;;;52.60;;
74162;SDS011;62515;52.758;5.076;2023-05-07T05:36:03;91.20;;;46.72;;
74162;SDS011;62515;52.758;5.076;2023-05-07T05:38:33;86.40;;;48.25;;
74162;SDS011;62515;52.758;5.076;2023-05-07T05:41:00;63.05;;;36.03;;
74162;SDS011;62515;52.758;5.076;2023-05-07T05:43:28;42.05;;;28.92;;
74162;SDS011;62515;52.758;5.076;2023-05-07T05:45:55;35.88;;;25.55;;
74162;SDS011;62515;52.758;5.076;2023-05-07T05:48:22;36.53;;;25.13;;
74162;SDS011;62515;52.758;5.076;2023-05-07T05:50:50;33.63;;;27.13;;
74162;SDS011;62515;52.758;5.076;2023-05-07T05:53:17;35.03;;;31.45;;
74162;SDS011;62515;52.758;5.076;2023-05-07T05:55:46;32.13;;;26.35;;
74162;SDS011;62515;52.758;5.076;2023-05-07T05:58:13;29.05;;;25.42;;
74162;SDS011;62515;52.758;5.076;2023-05-07T06:00:43;31.08;;;24.48;;
74162;SDS011;62515;52.758;5.076;2023-05-07T06:03:10;31.13;;;24.77;;
74162;SDS011;62515;52.758;5.076;2023-05-07T06:08:07;27.20;;;24.15;;
74162;SDS011;62515;52.758;5.076;2023-05-07T06:10:35;29.25;;;25.50;;
74162;SDS011;62515;52.758;5.076;2023-05-07T06:13:04;30.13;;;19.40;;
74162;SDS011;62515;52.758;5.076;2023-05-07T06:15:33;27.77;;;20.10;;
74162;SDS011;62515;52.758;5.076;2023-05-07T06:18:05;29.67;;;21.50;;
74162;SDS011;62515;52.758;5.076;2023-05-07T06:20:32;23.85;;;18.88;;
74162;SDS011;62515;52.758;5.076;2023-05-07T06:23:01;26.17;;;19.88;;
74162;SDS011;62515;52.758;5.076;2023-05-07T06:25:30;24.33;;;18.40;;
74162;SDS011;62515;52.758;5.076;2023-05-07T06:27:57;25.52;;;17.80;;
74162;SDS011;62515;52.758;5.076;2023-05-07T06:30:26;27.65;;;20.42;;
74162;SDS011;62515;52.758;5.076;2023-05-07T06:32:54;21.30;;;18.30;;
74162;SDS011;62515;52.758;5.076;2023-05-07T06:35:21;23.42;;;18.70;;
74162;SDS011;62515;52.758;5.076;2023-05-07T06:37:48;24.98;;;20.42;;
74162;SDS011;62515;52.758;5.076;2023-05-07T06:40:20;25.75;;;20.83;;
74162;SDS011;62515;52.758;5.076;2023-05-07T06:42:48;21.45;;;19.10;;
74162;SDS011;62515;52.758;5.076;2023-05-07T06:45:22;22.92;;;20.52;;
74162;SDS011;62515;52.758;5.076;2023-05-07T06:47:50;20.67;;;18.33;;
74162;SDS011;62515;52.758;5.076;2023-05-07T06:50:17;23.15;;;20.60;;
74162;SDS011;62515;52.758;5.076;2023-05-07T06:52:44;21.65;;;19.33;;
74162;SDS011;62515;52.758;5.076;2023-05-07T06:55:11;38.35;;;34.95;;
74162;SDS011;62515;52.758;5.076;2023-05-07T06:57:38;23.05;;;20.60;;
74162;SDS011;62515;52.758;5.076;2023-05-07T07:00:07;26.73;;;24.20;;
74162;SDS011;62515;52.758;5.076;2023-05-07T07:02:42;23.42;;;20.90;;
74162;SDS011;62515;52.758;5.076;2023-05-07T07:05:12;33.45;;;30.27;;
74162;SDS011;62515;52.758;5.076;2023-05-07T07:07:39;25.27;;;22.73;;
74162;SDS011;62515;52.758;5.076;2023-05-07T07:10:06;45.08;;;41.45;;
74162;SDS011;62515;52.758;5.076;2023-05-07T07:12:35;33.65;;;30.38;;
74162;SDS011;62515;52.758;5.076;2023-05-07T07:15:02;58.97;;;54.42;;
74162;SDS011;62515;52.758;5.076;2023-05-07T07:17:30;25.83;;;23.42;;
74162;SDS011;62515;52.758;5.076;2023-05-07T07:19:57;24.58;;;22.08;;
74162;SDS011;62515;52.758;5.076;2023-05-07T07:22:25;26.45;;;23.73;;
74162;SDS011;62515;52.758;5.076;2023-05-07T07:24:51;20.90;;;17.52;;
74162;SDS011;62515;52.758;5.076;2023-05-07T07:27:19;32.20;;;29.15;;
74162;SDS011;62515;52.758;5.076;2023-05-07T07:29:45;24.95;;;22.30;;
74162;SDS011;62515;52.758;5.076;2023-05-07T07:32:12;21.40;;;19.20;;
74162;SDS011;62515;52.758;5.076;2023-05-07T07:34:40;20.00;;;17.55;;
74162;SDS011;62515;52.758;5.076;2023-05-07T07:37:08;19.58;;;16.85;;
74162;SDS011;62515;52.758;5.076;2023-05-07T07:39:38;23.23;;;20.80;;
74162;SDS011;62515;52.758;5.076;2023-05-07T07:45:09;19.35;;;17.05;;
74162;SDS011;62515;52.758;5.076;2023-05-07T07:47:41;20.95;;;18.67;;
74162;SDS011;62515;52.758;5.076;2023-05-07T07:50:08;22.67;;;20.38;;
74162;SDS011;62515;52.758;5.076;2023-05-07T07:52:36;20.05;;;17.92;;
74162;SDS011;62515;52.758;5.076;2023-05-07T07:55:07;23.75;;;21.42;;
74162;SDS011;62515;52.758;5.076;2023-05-07T07:57:36;25.33;;;22.90;;
74162;SDS011;62515;52.758;5.076;2023-05-07T08:00:04;26.15;;;23.67;;
74162;SDS011;62515;52.758;5.076;2023-05-07T08:02:41;22.02;;;19.88;;
74162;SDS011;62515;52.758;5.076;2023-05-07T08:05:14;23.52;;;20.75;;
74162;SDS011;62515;52.758;5.076;2023-05-07T08:07:42;20.23;;;18.02;;
74162;SDS011;62515;52.758;5.076;2023-05-07T08:10:12;23.40;;;21.00;;
74162;SDS011;62515;52.758;5.076;2023-05-07T08:12:39;22.08;;;19.77;;
74162;SDS011;62515;52.758;5.076;2023-05-07T08:15:06;22.45;;;20.25;;
74162;SDS011;62515;52.758;5.076;2023-05-07T08:17:34;20.35;;;18.35;;
74162;SDS011;62515;52.758;5.076;2023-05-07T08:20:01;22.05;;;19.95;;
74162;SDS011;62515;52.758;5.076;2023-05-07T08:22:28;25.65;;;23.35;;
74162;SDS011;62515;52.758;5.076;2023-05-07T08:24:55;24.25;;;21.92;;
74162;SDS011;62515;52.758;5.076;2023-05-07T08:27:23;20.80;;;18.70;;
74162;SDS011;62515;52.758;5.076;2023-05-07T08:29:50;19.95;;;17.90;;
74162;SDS011;62515;52.758;5.076;2023-05-07T08:32:19;19.15;;;17.00;;
74162;SDS011;62515;52.758;5.076;2023-05-07T08:34:46;18.90;;;17.10;;
74162;SDS011;62515;52.758;5.076;2023-05-07T08:37:13;19.67;;;17.58;;
74162;SDS011;62515;52.758;5.076;2023-05-07T08:39:41;19.63;;;17.63;;
74162;SDS011;62515;52.758;5.076;2023-05-07T08:42:15;19.92;;;15.70;;
74162;SDS011;62515;52.758;5.076;2023-05-07T08:47:13;17.52;;;15.80;;
74162;SDS011;62515;52.758;5.076;2023-05-07T08:49:40;17.70;;;15.98;;
74162;SDS011;62515;52.758;5.076;2023-05-07T08:52:07;20.67;;;18.67;;
74162;SDS011;62515;52.758;5.076;2023-05-07T08:54:36;15.65;;;13.98;;
74162;SDS011;62515;52.758;5.076;2023-05-07T08:57:05;18.98;;;17.17;;
74162;SDS011;62515;52.758;5.076;2023-05-07T08:59:33;19.95;;;18.02;;
74162;SDS011;62515;52.758;5.076;2023-05-07T09:02:02;21.70;;;19.45;;
74162;SDS011;62515;52.758;5.076;2023-05-07T09:04:29;19.58;;;17.60;;
74162;SDS011;62515;52.758;5.076;2023-05-07T09:06:55;23.02;;;20.80;;
74162;SDS011;62515;52.758;5.076;2023-05-07T09:09:22;21.67;;;19.48;;
74162;SDS011;62515;52.758;5.076;2023-05-07T09:11:56;23.63;;;21.50;;
74162;SDS011;62515;52.758;5.076;2023-05-07T09:14:24;21.40;;;19.23;;
74162;SDS011;62515;52.758;5.076;2023-05-07T09:16:51;21.75;;;19.75;;
74162;SDS011;62515;52.758;5.076;2023-05-07T09:19:23;20.40;;;18.38;;
74162;SDS011;62515;52.758;5.076;2023-05-07T09:21:57;22.45;;;20.13;;
74162;SDS011;62515;52.758;5.076;2023-05-07T09:24:24;23.58;;;21.38;;
74162;SDS011;62515;52.758;5.076;2023-05-07T09:26:52;20.17;;;18.15;;
74162;SDS011;62515;52.758;5.076;2023-05-07T09:29:19;21.35;;;19.20;;
74162;SDS011;62515;52.758;5.076;2023-05-07T09:31:46;19.77;;;17.60;;
74162;SDS011;62515;52.758;5.076;2023-05-07T09:34:15;18.88;;;16.85;;
74162;SDS011;62515;52.758;5.076;2023-05-07T09:36:45;19.55;;;17.55;;
74162;SDS011;62515;52.758;5.076;2023-05-07T09:39:13;16.95;;;14.43;;
74162;SDS011;62515;52.758;5.076;2023-05-07T09:41:43;18.77;;;16.75;;
74162;SDS011;62515;52.758;5.076;2023-05-07T09:44:20;18.52;;;16.67;;
74162;SDS011;62515;52.758;5.076;2023-05-07T09:46:51;19.20;;;17.27;;
74162;SDS011;62515;52.758;5.076;2023-05-07T09:49:25;18.92;;;17.05;;
74162;SDS011;62515;52.758;5.076;2023-05-07T09:52:02;20.85;;;18.77;;
74162;SDS011;62515;52.758;5.076;2023-05-07T09:54:33;18.63;;;16.73;;
74162;SDS011;62515;52.758;5.076;2023-05-07T09:57:04;19.55;;;17.48;;
74162;SDS011;62515;52.758;5.076;2023-05-07T09:59:33;19.00;;;17.00;;
74162;SDS011;62515;52.758;5.076;2023-05-07T10:02:07;20.65;;;18.63;;
74162;SDS011;62515;52.758;5.076;2023-05-07T10:04:43;19.38;;;17.17;;
74162;SDS011;62515;52.758;5.076;2023-05-07T10:07:14;18.83;;;16.95;;
74162;SDS011;62515;52.758;5.076;2023-05-07T10:09:43;18.90;;;15.80;;
74162;SDS011;62515;52.758;5.076;2023-05-07T10:12:22;20.45;;;18.55;;
74162;SDS011;62515;52.758;5.076;2023-05-07T10:14:50;18.08;;;16.27;;
74162;SDS011;62515;52.758;5.076;2023-05-07T10:17:19;18.08;;;16.27;;
74162;SDS011;62515;52.758;5.076;2023-05-07T10:19:47;19.17;;;17.27;;
74162;SDS011;62515;52.758;5.076;2023-05-07T10:22:18;19.73;;;17.67;;
74162;SDS011;62515;52.758;5.076;2023-05-07T10:24:47;20.00;;;17.67;;
74162;SDS011;62515;52.758;5.076;2023-05-07T10:27:19;19.15;;;15.75;;
74162;SDS011;62515;52.758;5.076;2023-05-07T10:29:52;19.20;;;17.27;;
74162;SDS011;62515;52.758;5.076;2023-05-07T10:32:37;16.90;;;15.27;;
74162;SDS011;62515;52.758;5.076;2023-05-07T10:35:14;18.35;;;16.45;;
74162;SDS011;62515;52.758;5.076;2023-05-07T10:37:46;16.23;;;14.63;;
74162;SDS011;62515;52.758;5.076;2023-05-07T10:40:14;16.98;;;15.27;;
74162;SDS011;62515;52.758;5.076;2023-05-07T10:42:52;16.85;;;15.18;;
74162;SDS011;62515;52.758;5.076;2023-05-07T10:45:20;18.05;;;16.27;;
74162;SDS011;62515;52.758;5.076;2023-05-07T10:48:05;18.42;;;16.52;;
74162;SDS011;62515;52.758;5.076;2023-05-07T10:53:38;19.33;;;17.42;;
74162;SDS011;62515;52.758;5.076;2023-05-07T10:56:24;19.73;;;17.67;;
74162;SDS011;62515;52.758;5.076;2023-05-07T11:02:04;15.25;;;13.85;;
74162;SDS011;62515;52.758;5.076;2023-05-07T11:04:37;16.67;;;15.27;;
74162;SDS011;62515;52.758;5.076;2023-05-07T11:07:26;15.23;;;13.73;;
74162;SDS011;62515;52.758;5.076;2023-05-07T11:10:02;17.77;;;16.08;;
74162;SDS011;62515;52.758;5.076;2023-05-07T11:12:50;16.58;;;14.82;;
74162;SDS011;62515;52.758;5.076;2023-05-07T11:15:34;16.67;;;15.07;;
74162;SDS011;62515;52.758;5.076;2023-05-07T11:18:14;14.10;;;12.60;;
74162;SDS011;62515;52.758;5.076;2023-05-07T11:20:54;19.05;;;17.15;;
74162;SDS011;62515;52.758;5.076;2023-05-07T11:26:44;20.00;;;17.95;;
74162;SDS011;62515;52.758;5.076;2023-05-07T11:31:42;19.40;;;17.40;;
74162;SDS011;62515;52.758;5.076;2023-05-07T11:34:09;15.55;;;13.90;;
74162;SDS011;62515;52.758;5.076;2023-05-07T11:36:41;18.00;;;16.08;;
74162;SDS011;62515;52.758;5.076;2023-05-07T11:39:24;19.52;;;17.63;;
74162;SDS011;62515;52.758;5.076;2023-05-07T11:41:53;19.67;;;17.70;;
74162;SDS011;62515;52.758;5.076;2023-05-07T11:44:20;18.52;;;16.63;;
74162;SDS011;62515;52.758;5.076;2023-05-07T11:46:47;18.83;;;17.00;;
74162;SDS011;62515;52.758;5.076;2023-05-07T11:49:15;19.48;;;17.63;;
74162;SDS011;62515;52.758;5.076;2023-05-07T11:51:41;15.40;;;13.90;;
74162;SDS011;62515;52.758;5.076;2023-05-07T11:54:08;15.90;;;14.38;;
74162;SDS011;62515;52.758;5.076;2023-05-07T11:56:35;19.70;;;17.70;;
74162;SDS011;62515;52.758;5.076;2023-05-07T11:59:04;20.65;;;18.45;;
74162;SDS011;62515;52.758;5.076;2023-05-07T12:01:31;21.85;;;19.60;;
74162;SDS011;62515;52.758;5.076;2023-05-07T12:03:57;24.27;;;21.90;;
74162;SDS011;62515;52.758;5.076;2023-05-07T12:06:24;24.45;;;20.00;;
74162;SDS011;62515;52.758;5.076;2023-05-07T12:08:51;24.58;;;20.98;;
74162;SDS011;62515;52.758;5.076;2023-05-07T12:11:21;21.20;;;19.02;;
74162;SDS011;62515;52.758;5.076;2023-05-07T12:13:50;22.70;;;19.23;;
74162;SDS011;62515;52.758;5.076;2023-05-07T12:16:18;21.70;;;19.52;;
74162;SDS011;62515;52.758;5.076;2023-05-07T12:21:12;24.17;;;21.67;;
74162;SDS011;62515;52.758;5.076;2023-05-07T12:23:39;25.15;;;22.75;;
74162;SDS011;62515;52.758;5.076;2023-05-07T12:26:06;22.55;;;20.27;;
74162;SDS011;62515;52.758;5.076;2023-05-07T12:28:38;22.80;;;19.13;;
74162;SDS011;62515;52.758;5.076;2023-05-07T12:31:05;22.25;;;19.90;;
74162;SDS011;62515;52.758;5.076;2023-05-07T12:33:34;22.58;;;20.27;;
74162;SDS011;62515;52.758;5.076;2023-05-07T12:36:05;22.13;;;19.75;;
74162;SDS011;62515;52.758;5.076;2023-05-07T12:38:34;25.50;;;22.98;;
74162;SDS011;62515;52.758;5.076;2023-05-07T12:43:29;21.08;;;18.50;;
74162;SDS011;62515;52.758;5.076;2023-05-07T12:45:57;22.98;;;20.77;;
74162;SDS011;62515;52.758;5.076;2023-05-07T12:48:27;29.77;;;26.77;;
74162;SDS011;62515;52.758;5.076;2023-05-07T12:50:55;21.63;;;19.42;;
74162;SDS011;62515;52.758;5.076;2023-05-07T12:53:24;24.95;;;22.65;;
74162;SDS011;62515;52.758;5.076;2023-05-07T12:55:52;22.98;;;20.67;;
74162;SDS011;62515;52.758;5.076;2023-05-07T12:58:22;23.02;;;20.80;;
74162;SDS011;62515;52.758;5.076;2023-05-07T13:00:51;21.73;;;19.60;;
74162;SDS011;62515;52.758;5.076;2023-05-07T13:03:21;23.90;;;21.70;;
74162;SDS011;62515;52.758;5.076;2023-05-07T13:05:49;20.38;;;18.13;;
74162;SDS011;62515;52.758;5.076;2023-05-07T13:08:24;29.52;;;26.83;;
74162;SDS011;62515;52.758;5.076;2023-05-07T13:10:52;24.17;;;21.77;;
74162;SDS011;62515;52.758;5.076;2023-05-07T13:13:19;22.23;;;19.58;;
74162;SDS011;62515;52.758;5.076;2023-05-07T13:15:46;21.75;;;19.65;;
74162;SDS011;62515;52.758;5.076;2023-05-07T13:18:13;24.65;;;22.25;;
74162;SDS011;62515;52.758;5.076;2023-05-07T13:20:41;27.25;;;24.60;;
74162;SDS011;62515;52.758;5.076;2023-05-07T13:23:07;21.75;;;19.65;;
74162;SDS011;62515;52.758;5.076;2023-05-07T13:25:36;28.33;;;25.52;;
74162;SDS011;62515;52.758;5.076;2023-05-07T13:28:04;24.33;;;21.92;;
74162;SDS011;62515;52.758;5.076;2023-05-07T13:30:36;24.25;;;21.90;;
74162;SDS011;62515;52.758;5.076;2023-05-07T13:33:03;20.25;;;18.15;;
74162;SDS011;62515;52.758;5.076;2023-05-07T13:35:30;24.60;;;22.23;;
74162;SDS011;62515;52.758;5.076;2023-05-07T13:37:57;21.75;;;19.45;;
74162;SDS011;62515;52.758;5.076;2023-05-07T13:40:23;26.42;;;23.92;;
74162;SDS011;62515;52.758;5.076;2023-05-07T13:42:52;22.63;;;20.42;;
74162;SDS011;62515;52.758;5.076;2023-05-07T13:45:19;16.88;;;13.88;;
74162;SDS011;62515;52.758;5.076;2023-05-07T13:47:46;47.15;;;43.55;;
74162;SDS011;62515;52.758;5.076;2023-05-07T13:50:13;44.75;;;41.10;;
74162;SDS011;62515;52.758;5.076;2023-05-07T13:52:40;19.23;;;16.77;;
74162;SDS011;62515;52.758;5.076;2023-05-07T13:55:11;21.17;;;17.80;;
74162;SDS011;62515;52.758;5.076;2023-05-07T13:57:37;18.02;;;16.20;;
74162;SDS011;62515;52.758;5.076;2023-05-07T14:00:07;38.40;;;35.33;;
74162;SDS011;62515;52.758;5.076;2023-05-07T14:02:41;19.65;;;16.50;;
74162;SDS011;62515;52.758;5.076;2023-05-07T14:05:08;19.27;;;17.00;;
74162;SDS011;62515;52.758;5.076;2023-05-07T14:07:35;19.70;;;17.48;;
74162;SDS011;62515;52.758;5.076;2023-05-07T14:10:03;21.40;;;19.38;;
74162;SDS011;62515;52.758;5.076;2023-05-07T14:12:31;20.45;;;18.00;;
74162;SDS011;62515;52.758;5.076;2023-05-07T14:14:58;19.42;;;17.52;;
74162;SDS011;62515;52.758;5.076;2023-05-07T14:17:26;19.48;;;17.52;;
74162;SDS011;62515;52.758;5.076;2023-05-07T14:19:53;22.67;;;19.48;;
74162;SDS011;62515;52.758;5.076;2023-05-07T14:22:21;22.90;;;20.50;;
74162;SDS011;62515;52.758;5.076;2023-05-07T14:24:48;21.40;;;19.30;;
74162;SDS011;62515;52.758;5.076;2023-05-07T14:27:31;24.55;;;22.15;;
74162;SDS011;62515;52.758;5.076;2023-05-07T14:29:58;20.95;;;18.85;;
74162;SDS011;62515;52.758;5.076;2023-05-07T14:32:26;24.85;;;22.40;;
74162;SDS011;62515;52.758;5.076;2023-05-07T14:34:53;24.40;;;22.10;;
74162;SDS011;62515;52.758;5.076;2023-05-07T14:37:20;25.33;;;22.83;;
74162;SDS011;62515;52.758;5.076;2023-05-07T14:39:47;25.88;;;23.25;;
74162;SDS011;62515;52.758;5.076;2023-05-07T14:42:16;27.92;;;25.13;;
74162;SDS011;62515;52.758;5.076;2023-05-07T14:44:44;27.90;;;25.20;;
74162;SDS011;62515;52.758;5.076;2023-05-07T14:47:12;26.90;;;24.20;;
74162;SDS011;62515;52.758;5.076;2023-05-07T14:49:40;23.67;;;21.17;;
74162;SDS011;62515;52.758;5.076;2023-05-07T14:52:07;21.17;;;18.75;;
74162;SDS011;62515;52.758;5.076;2023-05-07T14:54:34;23.00;;;19.75;;
74162;SDS011;62515;52.758;5.076;2023-05-07T14:57:04;20.25;;;15.82;;